createdAt,value
2019-05-26T00:00:29.401Z,10.00
2019-05-26T00:03:00.020Z,9.90
2019-05-26T00:05:44.172Z,9.90
2019-05-26T00:08:21.147Z,9.80
2019-05-26T00:10:51.472Z,9.80
2019-05-26T00:13:21.795Z,9.80
2019-05-26T00:15:52.324Z,9.70
2019-05-26T00:18:22.850Z,9.60
2019-05-26T00:20:53.378Z,9.50
2019-05-26T00:23:23.906Z,9.40
2019-05-26T00:25:54.231Z,9.40
2019-05-26T00:28:24.759Z,9.40
2019-05-26T00:30:55.293Z,9.40
2019-05-26T00:33:25.611Z,9.30
2019-05-26T00:35:55.935Z,9.30
2019-05-26T00:38:26.259Z,9.30
2019-05-26T00:40:56.583Z,9.20
2019-05-26T00:43:27.102Z,9.30
2019-05-26T00:45:57.849Z,9.20
2019-05-26T00:48:27.853Z,9.20
2019-05-26T00:50:58.497Z,9.20
2019-05-26T00:53:29.025Z,9.20
2019-05-26T00:55:59.548Z,9.10
2019-05-26T00:58:29.873Z,9.20
2019-05-26T01:01:00.818Z,9.20
2019-05-26T01:03:31.544Z,9.20
2019-05-26T01:06:02.077Z,9.30
2019-05-26T01:08:32.601Z,9.30
2019-05-26T01:11:03.135Z,9.30
2019-05-26T01:13:33.663Z,9.40
2019-05-26T01:16:04.193Z,9.40
2019-05-26T01:18:34.715Z,9.40
2019-05-26T01:21:05.251Z,9.30
2019-05-26T01:23:35.776Z,9.20
2019-05-26T01:26:06.307Z,9.20
2019-05-26T01:28:36.626Z,9.20
2019-05-26T01:31:07.359Z,9.20
2019-05-26T01:33:37.893Z,9.20
2019-05-26T01:36:08.210Z,9.20
2019-05-26T01:38:39.972Z,9.20
2019-05-26T01:41:10.503Z,9.20
2019-05-26T01:43:41.025Z,9.20
2019-05-26T01:46:11.560Z,9.20
2019-05-26T01:48:41.877Z,9.20
2019-05-26T01:51:12.405Z,9.30
2019-05-26T01:53:42.934Z,9.20
2019-05-26T01:56:13.261Z,9.20
2019-05-26T01:58:43.787Z,9.20
2019-05-26T02:01:13.906Z,9.20
2019-05-26T02:03:44.229Z,9.20
2019-05-26T02:06:14.761Z,9.20
2019-05-26T02:08:45.286Z,9.30
2019-05-26T02:11:15.819Z,9.20
2019-05-26T02:13:46.143Z,9.20
2019-05-26T02:16:16.462Z,9.20
2019-05-26T02:18:46.787Z,9.20
2019-05-26T02:21:17.322Z,9.20
2019-05-26T02:23:47.846Z,9.30
2019-05-26T02:26:18.168Z,9.30
2019-05-26T02:28:48.495Z,9.50
2019-05-26T02:31:19.024Z,9.40
2019-05-26T02:33:49.346Z,9.50
2019-05-26T02:36:19.871Z,9.60
2019-05-26T02:39:01.874Z,9.60
2019-05-26T02:41:22.227Z,9.70
2019-05-26T02:43:53.123Z,9.70
2019-05-26T02:46:23.630Z,9.60
2019-05-26T02:48:54.158Z,9.60
2019-05-26T02:51:24.682Z,9.60
2019-05-26T02:53:55.009Z,9.60
2019-05-26T02:56:25.740Z,9.70
2019-05-26T02:59:15.533Z,9.80
2019-05-26T03:02:02.447Z,9.90
2019-05-26T03:04:18.014Z,10.10
2019-05-26T03:06:50.176Z,10.20
2019-05-26T03:09:23.510Z,10.20
2019-05-26T03:11:55.182Z,10.30
2019-05-26T03:14:27.021Z,10.40
2019-05-26T03:16:58.853Z,10.50
2019-05-26T03:19:32.240Z,10.60
2019-05-26T03:22:23.463Z,10.70
2019-05-26T03:24:55.416Z,10.80
2019-05-26T03:27:25.948Z,10.80
2019-05-26T03:29:56.475Z,10.90
2019-05-26T03:32:26.798Z,10.90
2019-05-26T03:34:57.327Z,10.90
2019-05-26T03:37:27.537Z,11.00
2019-05-26T03:39:57.980Z,11.00
2019-05-26T03:42:28.506Z,11.10
2019-05-26T03:44:59.034Z,11.20
2019-05-26T03:47:29.558Z,11.30
2019-05-26T03:49:59.886Z,11.30
2019-05-26T03:52:30.819Z,11.40
2019-05-26T03:55:01.148Z,11.50
2019-05-26T03:57:31.678Z,11.50
2019-05-26T04:00:02.642Z,11.50
2019-05-26T04:02:33.145Z,11.50
2019-05-26T04:05:03.739Z,11.50
2019-05-26T04:07:34.201Z,11.50
2019-05-26T04:10:07.193Z,11.50
2019-05-26T04:12:37.515Z,11.60
2019-05-26T04:15:08.164Z,11.50
2019-05-26T04:17:38.567Z,11.50
2019-05-26T04:20:09.506Z,11.60
2019-05-26T04:22:40.033Z,11.60
2019-05-26T04:25:10.687Z,11.70
2019-05-26T04:27:41.293Z,11.80
2019-05-26T04:30:12.025Z,11.90
2019-05-26T04:32:42.349Z,11.90
2019-05-26T04:35:12.676Z,12.00
2019-05-26T04:37:43.214Z,12.10
2019-05-26T04:40:26.527Z,12.10
2019-05-26T04:42:46.313Z,12.10
2019-05-26T04:45:17.043Z,12.20
2019-05-26T04:47:47.577Z,12.20
2019-05-26T04:50:18.307Z,12.30
2019-05-26T04:53:05.461Z,12.40
2019-05-26T04:55:20.591Z,12.40
2019-05-26T04:57:51.128Z,12.50
2019-05-26T05:00:23.495Z,12.50
2019-05-26T05:02:54.017Z,12.40
2019-05-26T05:05:24.546Z,12.50
2019-05-26T05:07:54.873Z,12.50
2019-05-26T05:10:39.446Z,12.60
2019-05-26T05:12:57.041Z,12.60
2019-05-26T05:15:27.478Z,12.70
2019-05-26T05:17:57.803Z,12.60
2019-05-26T05:20:28.129Z,12.60
2019-05-26T05:22:58.657Z,12.70
2019-05-26T05:25:29.184Z,12.80
2019-05-26T05:27:59.715Z,12.90
2019-05-26T05:30:30.244Z,12.90
2019-05-26T05:33:01.184Z,12.90
2019-05-26T05:35:31.912Z,12.80
2019-05-26T05:38:03.264Z,12.90
2019-05-26T05:40:33.994Z,13.00
2019-05-26T05:43:04.524Z,13.00
2019-05-26T05:45:34.846Z,13.00
2019-05-26T05:48:05.788Z,13.10
2019-05-26T05:50:39.117Z,13.10
2019-05-26T05:53:08.892Z,13.20
2019-05-26T05:55:39.220Z,13.20
2019-05-26T05:58:17.732Z,13.20
2019-05-26T06:00:48.668Z,13.30
2019-05-26T06:03:19.405Z,13.30
2019-05-26T06:05:49.928Z,13.30
2019-05-26T06:08:20.457Z,13.30
2019-05-26T06:10:50.987Z,13.30
2019-05-26T06:13:21.726Z,13.50
2019-05-26T06:15:52.250Z,13.70
2019-05-26T06:18:22.988Z,13.90
2019-05-26T06:20:53.310Z,14.00
2019-05-26T06:23:24.049Z,14.10
2019-05-26T06:25:54.773Z,14.20
2019-05-26T06:28:25.505Z,14.20
2019-05-26T06:30:56.138Z,14.30
2019-05-26T06:33:26.771Z,14.40
2019-05-26T06:35:57.093Z,14.40
2019-05-26T06:38:27.618Z,14.30
2019-05-26T06:40:57.948Z,14.30
2019-05-26T06:43:28.472Z,14.30
2019-05-26T06:45:59.003Z,14.30
2019-05-26T06:48:29.332Z,14.30
2019-05-26T06:50:59.852Z,14.20
2019-05-26T06:53:30.380Z,14.30
2019-05-26T06:56:00.911Z,14.30
2019-05-26T06:58:32.049Z,14.30
2019-05-26T07:01:02.426Z,14.50
2019-05-26T07:03:33.324Z,14.50
2019-05-26T07:06:03.845Z,14.50
2019-05-26T07:08:34.375Z,14.60
2019-05-26T07:11:04.699Z,14.50
2019-05-26T07:13:35.023Z,14.30
2019-05-26T07:16:06.165Z,14.40
2019-05-26T07:18:36.592Z,14.40
2019-05-26T07:21:07.218Z,14.40
2019-05-26T07:23:37.544Z,14.40
2019-05-26T07:26:08.070Z,14.40
2019-05-26T07:28:38.079Z,14.30
2019-05-26T07:31:08.924Z,14.30
2019-05-26T07:33:39.455Z,14.20
2019-05-26T07:36:10.390Z,14.20
2019-05-26T07:38:40.922Z,14.10
2019-05-26T07:41:11.243Z,14.00
2019-05-26T07:43:41.770Z,14.00
2019-05-26T07:46:12.305Z,14.00
2019-05-26T07:48:42.902Z,13.90
2019-05-26T07:51:13.561Z,13.90
2019-05-26T07:53:43.889Z,13.90
2019-05-26T07:56:14.005Z,14.00
2019-05-26T07:58:44.536Z,14.00
2019-05-26T08:01:15.061Z,14.10
2019-05-26T08:03:45.385Z,14.20
2019-05-26T08:06:15.507Z,14.20
2019-05-26T08:08:46.243Z,14.10
2019-05-26T08:11:16.560Z,14.10
2019-05-26T08:13:47.512Z,14.00
2019-05-26T08:16:18.031Z,14.10
2019-05-26T08:18:48.560Z,14.10
2019-05-26T08:21:19.085Z,14.20
2019-05-26T08:23:49.708Z,14.20
2019-05-26T08:26:20.761Z,14.30
2019-05-26T08:31:37.179Z,14.20
2019-05-26T08:34:07.301Z,14.20
2019-05-26T08:36:39.259Z,14.10
2019-05-26T08:39:11.016Z,14.00
2019-05-26T08:41:41.950Z,14.00
2019-05-26T08:44:12.483Z,14.00
2019-05-26T08:46:43.007Z,13.90
2019-05-26T08:49:13.536Z,14.00
2019-05-26T08:51:44.065Z,13.90
2019-05-26T08:54:14.388Z,14.00
2019-05-26T08:56:45.126Z,14.00
2019-05-26T08:59:15.854Z,14.00
2019-05-26T09:01:46.592Z,14.00
2019-05-26T09:04:17.321Z,13.90
2019-05-26T09:06:47.646Z,14.00
2019-05-26T09:09:18.177Z,14.10
2019-05-26T09:11:48.708Z,14.20
2019-05-26T09:14:19.231Z,14.50
2019-05-26T09:16:49.759Z,14.80
2019-05-26T09:19:20.288Z,15.00
2019-05-26T09:21:52.255Z,15.20
2019-05-26T09:24:22.783Z,15.70
2019-05-26T09:26:53.104Z,16.20
2019-05-26T09:29:23.631Z,16.20
2019-05-26T09:31:54.614Z,16.40
2019-05-26T09:34:25.328Z,16.50
2019-05-26T09:36:57.118Z,16.50
2019-05-26T09:39:27.793Z,16.70
2019-05-26T09:41:58.324Z,16.50
2019-05-26T09:44:28.853Z,16.10
2019-05-26T09:46:59.380Z,15.70
2019-05-26T09:49:29.909Z,15.40
2019-05-26T09:52:00.438Z,15.50
2019-05-26T09:54:30.971Z,15.60
2019-05-26T09:57:01.508Z,15.80
2019-05-26T09:59:32.024Z,15.70
2019-05-26T10:02:02.356Z,15.60
2019-05-26T10:04:32.881Z,15.50
2019-05-26T10:07:03.200Z,15.60
2019-05-26T10:09:34.546Z,15.60
2019-05-26T10:12:05.484Z,15.30
2019-05-26T10:14:36.016Z,15.30
2019-05-26T10:17:06.542Z,15.30
2019-05-26T10:19:36.870Z,15.20
2019-05-26T10:22:07.192Z,15.20
2019-05-26T10:24:37.717Z,15.30
2019-05-26T10:27:08.045Z,15.40
2019-05-26T10:29:38.573Z,15.40
2019-05-26T10:32:08.894Z,15.50
2019-05-26T10:34:39.219Z,15.50
2019-05-26T10:37:09.747Z,15.60
2019-05-26T10:39:40.274Z,15.60
2019-05-26T10:42:10.598Z,15.70
2019-05-26T10:44:41.126Z,15.80
2019-05-26T10:47:11.450Z,15.80
2019-05-26T10:49:41.778Z,15.80
2019-05-26T10:52:12.235Z,15.80
2019-05-26T10:54:42.631Z,15.80
2019-05-26T10:57:13.950Z,15.80
2019-05-26T10:59:43.986Z,15.70
2019-05-26T11:02:13.984Z,15.70
2019-05-26T11:04:44.126Z,15.60
2019-05-26T11:07:14.658Z,15.60
2019-05-26T11:09:45.188Z,15.50
2019-05-26T11:12:15.920Z,15.70
2019-05-26T11:14:46.445Z,15.80
2019-05-26T11:17:16.773Z,15.90
2019-05-26T11:19:47.197Z,15.90
2019-05-26T11:22:17.796Z,16.10
2019-05-26T11:24:48.145Z,16.30
2019-05-26T11:27:20.211Z,16.30
2019-05-26T11:29:54.531Z,16.40
2019-05-26T11:32:24.600Z,16.40
2019-05-26T11:35:01.600Z,16.40
2019-05-26T11:37:27.231Z,16.40
2019-05-26T11:39:57.879Z,16.40
2019-05-26T11:42:28.089Z,16.50
2019-05-26T11:44:58.106Z,16.30
2019-05-26T11:47:28.045Z,16.30
2019-05-26T11:49:58.150Z,16.20
2019-05-26T11:52:28.572Z,16.20
2019-05-26T11:54:59.104Z,16.20
2019-05-26T11:57:29.208Z,16.10
2019-05-26T11:59:59.190Z,16.20
2019-05-26T12:02:29.294Z,16.20
2019-05-26T12:04:59.683Z,16.40
2019-05-26T12:07:30.007Z,16.40
2019-05-26T12:10:00.740Z,16.50
2019-05-26T12:12:30.900Z,16.50
2019-05-26T12:15:01.183Z,16.60
2019-05-26T12:17:31.555Z,16.60
2019-05-26T12:20:04.991Z,16.60
2019-05-26T12:22:33.481Z,16.60
2019-05-26T12:25:05.551Z,16.50
2019-05-26T12:27:36.078Z,16.50
2019-05-26T12:30:10.293Z,16.50
2019-05-26T12:32:41.025Z,16.50
2019-05-26T12:35:11.759Z,16.60
2019-05-26T12:37:42.082Z,16.70
2019-05-26T12:40:12.729Z,16.80
2019-05-26T12:42:43.145Z,16.90
2019-05-26T12:45:14.077Z,17.10
2019-05-26T12:47:44.610Z,17.10
2019-05-26T12:50:15.533Z,17.30
2019-05-26T12:52:46.951Z,17.50
2019-05-26T12:55:18.416Z,17.50
2019-05-26T12:57:48.461Z,17.60
2019-05-26T13:00:19.500Z,17.60
2019-05-26T13:02:50.042Z,17.60
2019-05-26T13:05:21.789Z,17.60
2019-05-26T13:07:52.568Z,17.60
2019-05-26T13:10:23.460Z,17.70
2019-05-26T13:12:53.784Z,17.60
2019-05-26T13:15:24.718Z,17.60
2019-05-26T13:18:02.215Z,17.70
2019-05-26T13:20:32.534Z,17.80
2019-05-26T13:23:02.862Z,17.70
2019-05-26T13:25:33.390Z,17.70
2019-05-26T13:28:05.611Z,17.80
2019-05-26T13:30:36.287Z,17.80
2019-05-26T13:33:07.429Z,17.90
2019-05-26T13:35:37.560Z,18.10
2019-05-26T13:38:08.077Z,18.20
2019-05-26T13:40:38.606Z,18.30
2019-05-26T13:43:09.138Z,18.40
2019-05-26T13:45:39.670Z,18.30
2019-05-26T13:48:09.991Z,18.30
2019-05-26T13:50:40.937Z,18.40
2019-05-26T13:53:11.254Z,18.50
2019-05-26T13:55:42.187Z,18.50
2019-05-26T13:58:12.715Z,18.30
2019-05-26T14:00:43.044Z,18.10
2019-05-26T14:03:13.367Z,18.20
2019-05-26T14:05:43.688Z,18.30
2019-05-26T14:08:13.805Z,18.30
2019-05-26T14:10:44.133Z,18.40
2019-05-26T14:13:14.662Z,18.30
2019-05-26T14:15:47.440Z,18.30
2019-05-26T14:18:18.281Z,18.30
2019-05-26T14:20:48.909Z,18.10
2019-05-26T14:23:19.434Z,18.00
2019-05-26T14:25:49.762Z,18.00
2019-05-26T14:28:20.293Z,18.00
2019-05-26T14:30:50.820Z,18.00
2019-05-26T14:33:21.344Z,17.90
2019-05-26T14:35:51.672Z,17.90
2019-05-26T14:38:22.001Z,17.90
2019-05-26T14:40:52.523Z,17.90
2019-05-26T14:43:23.052Z,17.90
2019-05-26T14:45:53.982Z,18.00
2019-05-26T14:48:24.725Z,18.00
2019-05-26T14:50:55.255Z,18.00
2019-05-26T14:53:25.778Z,18.10
2019-05-26T14:55:56.306Z,18.20
2019-05-26T14:58:26.837Z,18.20
2019-05-26T15:00:57.158Z,18.20
2019-05-26T15:03:27.483Z,18.10
2019-05-26T15:06:05.950Z,18.00
2019-05-26T15:08:30.183Z,18.00
2019-05-26T15:11:00.501Z,17.90
2019-05-26T15:13:31.020Z,17.90
2019-05-26T15:16:10.006Z,17.80
2019-05-26T15:18:33.111Z,17.80
2019-05-26T15:21:03.640Z,17.90
2019-05-26T15:23:34.170Z,17.90
2019-05-26T15:26:05.414Z,17.90
2019-05-26T15:28:35.832Z,17.70
2019-05-26T15:31:08.044Z,17.80
2019-05-26T15:33:37.920Z,17.80
2019-05-26T15:36:08.248Z,17.80
2019-05-26T15:38:42.873Z,17.80
2019-05-26T15:41:10.535Z,17.80
2019-05-26T15:43:41.063Z,17.80
2019-05-26T15:46:24.203Z,17.90
2019-05-26T15:48:43.146Z,18.00
2019-05-26T15:51:13.873Z,18.00
2019-05-26T15:53:44.402Z,18.00
2019-05-26T15:56:14.931Z,18.00
2019-05-26T15:58:45.869Z,17.90
2019-05-26T16:01:16.194Z,17.80
2019-05-26T16:03:46.926Z,17.80
2019-05-26T16:06:17.464Z,17.80
2019-05-26T16:08:47.988Z,17.80
2019-05-26T16:11:18.307Z,17.80
2019-05-26T16:13:48.873Z,17.80
2019-05-26T16:16:19.572Z,17.80
2019-05-26T16:18:50.101Z,17.80
2019-05-26T16:21:28.011Z,17.70
2019-05-26T16:23:52.179Z,17.70
2019-05-26T16:26:22.502Z,17.70
2019-05-26T16:28:53.445Z,17.70
2019-05-26T16:31:23.971Z,17.60
2019-05-26T16:33:54.502Z,17.60
2019-05-26T16:36:25.030Z,17.60
2019-05-26T16:38:55.559Z,17.60
2019-05-26T16:41:25.881Z,17.60
2019-05-26T16:43:56.293Z,17.60
2019-05-26T16:46:26.284Z,17.60
2019-05-26T16:48:57.888Z,17.50
2019-05-26T16:51:28.895Z,17.60
2019-05-26T16:53:58.976Z,17.60
2019-05-26T16:56:29.038Z,17.60
2019-05-26T16:58:59.133Z,17.60
2019-05-26T17:01:29.257Z,17.50
2019-05-26T17:03:59.192Z,17.50
2019-05-26T17:06:29.150Z,16.60
2019-05-26T17:08:59.070Z,17.50
2019-05-26T17:11:29.035Z,17.50
2019-05-26T17:13:59.152Z,17.50
2019-05-26T17:16:29.326Z,17.50
2019-05-26T17:19:00.238Z,17.60
2019-05-26T17:21:30.319Z,17.60
2019-05-26T17:24:00.340Z,17.60
2019-05-26T17:26:30.451Z,17.60
2019-05-26T17:29:00.358Z,17.50
2019-05-26T17:31:30.356Z,17.50
2019-05-26T17:34:00.368Z,17.50
2019-05-26T17:36:30.754Z,17.50
2019-05-26T17:39:01.279Z,17.50
2019-05-26T17:41:31.301Z,17.50
2019-05-26T17:44:02.341Z,17.50
2019-05-26T17:46:32.344Z,17.50
2019-05-26T17:49:02.383Z,17.40
2019-05-26T17:51:32.433Z,17.40
2019-05-26T17:54:02.406Z,17.40
2019-05-26T17:56:32.431Z,17.40
2019-05-26T17:59:02.545Z,17.30
2019-05-26T18:01:32.544Z,17.40
2019-05-26T18:04:02.508Z,17.40
2019-05-26T18:06:32.596Z,17.40
2019-05-26T18:09:02.609Z,17.40
2019-05-26T18:11:32.666Z,17.40
2019-05-26T18:14:02.813Z,17.40
2019-05-26T18:16:32.875Z,17.40
2019-05-26T18:19:03.243Z,17.40
2019-05-26T18:21:33.186Z,17.40
2019-05-26T18:24:03.216Z,17.40
2019-05-26T18:26:33.264Z,17.40
2019-05-26T18:29:03.358Z,17.40
2019-05-26T18:31:33.412Z,17.40
2019-05-26T18:34:03.413Z,17.30
2019-05-26T18:36:33.383Z,17.40
2019-05-26T18:39:04.318Z,17.30
2019-05-26T18:41:34.393Z,17.30
2019-05-26T18:44:04.511Z,17.20
2019-05-26T18:46:34.457Z,17.20
2019-05-26T18:49:04.384Z,17.20
2019-05-26T18:51:34.477Z,17.20
2019-05-26T18:54:04.862Z,16.80
2019-05-26T18:56:35.069Z,17.10
2019-05-26T18:59:06.049Z,17.00
2019-05-26T19:01:36.227Z,17.00
2019-05-26T19:04:07.169Z,17.00
2019-05-26T19:06:37.496Z,16.90
2019-05-26T19:09:09.851Z,16.90
2019-05-26T19:11:40.193Z,16.90
2019-05-26T19:14:10.713Z,16.90
2019-05-26T19:16:41.661Z,16.80
2019-05-26T19:19:12.188Z,16.80
2019-05-26T19:21:42.712Z,16.70
2019-05-26T19:24:13.032Z,16.80
2019-05-26T19:26:43.970Z,16.70
2019-05-26T19:29:14.298Z,16.70
2019-05-26T19:31:44.616Z,16.60
2019-05-26T19:34:14.946Z,16.60
2019-05-26T19:36:45.681Z,16.60
2019-05-26T19:39:35.055Z,16.60
2019-05-26T19:42:05.789Z,16.60
2019-05-26T19:44:36.309Z,16.60
2019-05-26T19:47:07.166Z,16.50
2019-05-26T19:49:37.569Z,16.50
2019-05-26T19:52:08.307Z,16.60
2019-05-26T19:54:39.247Z,16.50
2019-05-26T19:57:09.770Z,16.50
2019-05-26T19:59:40.507Z,16.40
2019-05-26T20:02:18.321Z,16.40
2019-05-26T20:04:43.403Z,16.30
2019-05-26T20:07:13.936Z,16.30
2019-05-26T20:09:44.460Z,16.30
2019-05-26T20:12:14.992Z,16.30
2019-05-26T20:14:45.522Z,16.30
2019-05-26T20:17:16.459Z,16.30
2019-05-26T20:19:47.190Z,16.30
2019-05-26T20:22:17.516Z,16.20
2019-05-26T20:24:48.045Z,16.30
2019-05-26T20:27:18.572Z,16.20
2019-05-26T20:29:49.098Z,16.20
2019-05-26T20:32:19.632Z,16.20
2019-05-26T20:34:49.956Z,16.30
2019-05-26T20:37:20.481Z,16.30
2019-05-26T20:39:51.012Z,16.30
2019-05-26T20:42:21.334Z,16.40
2019-05-26T20:44:51.861Z,16.40
2019-05-26T20:47:22.389Z,16.50
2019-05-26T20:49:53.332Z,16.50
2019-05-26T20:52:23.858Z,16.50
2019-05-26T20:54:54.180Z,16.60
2019-05-26T20:57:24.506Z,16.60
2019-05-26T20:59:54.830Z,16.60
2019-05-26T21:02:25.368Z,16.60
2019-05-26T21:04:55.679Z,16.60
2019-05-26T21:07:26.211Z,16.60
2019-05-26T21:09:56.737Z,16.60
2019-05-26T21:12:27.064Z,16.60
2019-05-26T21:15:00.677Z,16.50
2019-05-26T21:17:29.964Z,16.50
2019-05-26T21:20:00.289Z,16.50
2019-05-26T21:22:30.812Z,16.40
2019-05-26T21:25:01.344Z,16.40
2019-05-26T21:27:31.871Z,16.30
2019-05-26T21:30:02.402Z,16.30
2019-05-26T21:32:32.928Z,16.30
2019-05-26T21:35:03.664Z,16.30
2019-05-26T21:37:34.602Z,16.40
2019-05-26T21:40:07.790Z,16.30
2019-05-26T21:42:38.114Z,16.30
2019-05-26T21:45:09.055Z,16.30
2019-05-26T21:47:39.375Z,16.30
2019-05-26T21:50:10.666Z,16.30
2019-05-26T21:52:41.047Z,16.30
2019-05-26T21:55:13.420Z,16.30
2019-05-26T21:57:43.747Z,16.30
2019-05-26T22:00:16.531Z,16.30
2019-05-26T22:02:47.052Z,16.30
2019-05-26T22:05:17.381Z,16.30
2019-05-26T22:07:47.905Z,16.30
2019-05-26T22:10:18.437Z,16.30
2019-05-26T22:12:48.967Z,16.30
2019-05-26T22:15:18.973Z,16.30
2019-05-26T22:17:49.817Z,16.30
2019-05-26T22:20:20.342Z,16.30
2019-05-26T22:22:50.673Z,16.20
2019-05-26T22:25:21.517Z,16.20
2019-05-26T22:27:52.342Z,16.20
2019-05-26T22:30:22.984Z,16.20
2019-05-26T22:32:53.399Z,16.20
2019-05-26T22:35:23.928Z,16.10
2019-05-26T22:37:54.458Z,16.10
2019-05-26T22:40:24.980Z,16.10
2019-05-26T22:42:55.513Z,16.10
2019-05-26T22:45:25.833Z,16.10
2019-05-26T22:47:56.366Z,16.10
2019-05-26T22:50:26.892Z,16.10
2019-05-26T22:52:57.420Z,16.10
2019-05-26T22:55:27.947Z,16.10
2019-05-26T22:57:58.890Z,16.10
2019-05-26T23:00:29.418Z,16.10
2019-05-26T23:02:59.943Z,16.10
2019-05-26T23:05:30.479Z,16.10
2019-05-26T23:08:01.000Z,16.10
2019-05-26T23:10:31.324Z,16.10
2019-05-26T23:13:01.651Z,16.10
2019-05-26T23:15:32.381Z,16.00
2019-05-26T23:18:02.709Z,16.00
2019-05-26T23:20:33.030Z,16.00
2019-05-26T23:23:03.561Z,16.00
2019-05-26T23:25:34.090Z,16.10
2019-05-26T23:28:04.618Z,16.10
2019-05-26T23:30:34.938Z,16.10
2019-05-26T23:33:05.471Z,16.10
2019-05-26T23:35:35.997Z,16.10
2019-05-26T23:38:07.141Z,16.10
2019-05-26T23:40:37.463Z,16.10
2019-05-26T23:43:07.792Z,16.20
2019-05-26T23:45:38.109Z,16.20
2019-05-26T23:48:08.439Z,16.20
2019-05-26T23:50:38.970Z,16.20
2019-05-26T23:53:09.495Z,16.20
2019-05-26T23:55:40.019Z,16.20
2019-05-26T23:58:10.549Z,16.20
